createdAt,value
2022-09-29T00:01:00.765Z,99.90
2022-09-29T00:03:29.356Z,99.90
2022-09-29T00:06:01.488Z,99.90
2022-09-29T00:08:35.223Z,99.90
2022-09-29T00:11:11.149Z,99.90
2022-09-29T00:13:48.320Z,99.90
2022-09-29T00:19:15.108Z,99.90
2022-09-29T00:22:08.716Z,99.90
2022-09-29T00:24:48.997Z,99.90
2022-09-29T00:30:07.263Z,99.90
2022-09-29T00:40:10.508Z,99.90
2022-09-29T00:42:49.325Z,99.90
2022-09-29T00:45:23.985Z,99.90
2022-09-29T00:48:17.253Z,99.90
2022-09-29T00:50:49.898Z,99.90
2022-09-29T00:53:25.220Z,99.90
2022-09-29T00:56:09.917Z,99.90
2022-09-29T00:58:47.188Z,99.90
2022-09-29T01:01:20.633Z,99.90
2022-09-29T01:03:55.761Z,99.90
2022-09-29T01:06:59.614Z,99.90
2022-09-29T01:09:36.101Z,99.90
2022-09-29T01:12:04.627Z,99.90
2022-09-29T01:14:41.689Z,99.90
2022-09-29T01:17:12.332Z,99.90
2022-09-29T01:20:04.598Z,99.90
2022-09-29T01:22:53.742Z,99.90
2022-09-29T01:25:42.819Z,99.90
2022-09-29T01:31:56.950Z,99.90
2022-09-29T01:34:37.505Z,99.90
2022-09-29T01:37:26.603Z,99.90
2022-09-29T01:40:08.997Z,99.90
2022-09-29T01:42:44.968Z,99.90
2022-09-29T01:45:18.801Z,99.90
2022-09-29T01:47:56.553Z,99.90
2022-09-29T01:50:27.433Z,99.90
2022-09-29T01:53:08.339Z,99.90
2022-09-29T01:58:35.752Z,99.90
2022-09-29T02:01:09.654Z,99.90
2022-09-29T02:04:40.725Z,99.90
2022-09-29T02:07:15.240Z,99.90
2022-09-29T02:09:48.416Z,99.90
2022-09-29T02:12:24.365Z,99.90
2022-09-29T02:15:26.858Z,99.90
2022-09-29T02:17:57.973Z,99.90
2022-09-29T02:20:28.393Z,99.90
2022-09-29T02:22:58.039Z,99.90
2022-09-29T02:25:41.928Z,99.90
2022-09-29T02:28:20.980Z,99.90
2022-09-29T02:30:50.405Z,99.90
2022-09-29T02:33:32.714Z,99.90
2022-09-29T02:36:36.389Z,99.90
2022-09-29T02:39:17.695Z,99.90
2022-09-29T02:42:15.407Z,99.90
2022-09-29T02:48:27.884Z,99.90
2022-09-29T02:51:35.654Z,99.90
2022-09-29T02:54:17.076Z,99.90
2022-09-29T02:56:54.696Z,99.90
2022-09-29T02:59:46.717Z,99.90
2022-09-29T03:02:26.513Z,99.90
2022-09-29T03:04:55.295Z,99.90
2022-09-29T03:10:37.062Z,99.90
2022-09-29T03:13:30.602Z,99.90
2022-09-29T03:24:23.493Z,99.90
2022-09-29T03:27:40.297Z,99.90
2022-09-29T03:30:18.272Z,99.90
2022-09-29T03:32:52.591Z,99.90
2022-09-29T03:35:44.703Z,99.90
2022-09-29T03:38:14.569Z,99.90
2022-09-29T03:41:05.811Z,99.90
2022-09-29T03:43:57.474Z,99.90
2022-09-29T03:46:31.039Z,99.90
2022-09-29T03:49:01.363Z,99.90
2022-09-29T03:51:33.668Z,99.90
2022-09-29T03:54:05.738Z,99.90
2022-09-29T03:56:57.060Z,99.90
2022-09-29T03:59:27.644Z,99.90
2022-09-29T04:02:02.316Z,99.90
2022-09-29T04:04:38.021Z,99.90
2022-09-29T04:07:30.432Z,99.90
2022-09-29T04:10:12.114Z,99.90
2022-09-29T04:12:44.986Z,99.90
2022-09-29T04:15:14.157Z,99.90
2022-09-29T04:17:52.042Z,99.90
2022-09-29T04:20:20.772Z,99.90
2022-09-29T04:22:54.165Z,99.90
2022-09-29T04:25:35.462Z,99.90
2022-09-29T04:28:03.758Z,99.90
2022-09-29T04:30:35.119Z,99.90
2022-09-29T04:36:51.845Z,99.90
2022-09-29T04:39:23.466Z,99.90
2022-09-29T04:41:56.616Z,99.90
2022-09-29T04:44:27.711Z,99.90
2022-09-29T04:46:59.481Z,99.90
2022-09-29T04:52:20.630Z,99.90
2022-09-29T04:54:49.894Z,99.90
2022-09-29T05:01:09.507Z,99.90
2022-09-29T05:03:38.836Z,99.90
2022-09-29T05:10:14.230Z,99.90
2022-09-29T05:12:56.649Z,99.90
2022-09-29T05:15:30.643Z,99.90
2022-09-29T05:20:55.885Z,99.90
2022-09-29T05:24:04.618Z,99.90
2022-09-29T05:26:39.094Z,99.90
2022-09-29T05:29:13.933Z,99.90
2022-09-29T05:35:18.069Z,99.90
2022-09-29T05:38:19.119Z,99.90
2022-09-29T05:40:52.430Z,99.90
2022-09-29T05:43:21.765Z,99.90
2022-09-29T05:52:15.808Z,99.90
2022-09-29T05:54:58.849Z,99.90
2022-09-29T05:57:33.478Z,99.90
2022-09-29T06:00:08.130Z,99.90
2022-09-29T06:03:00.708Z,99.90
2022-09-29T06:08:26.281Z,99.90
2022-09-29T06:10:57.811Z,99.90
2022-09-29T06:13:35.206Z,99.90
2022-09-29T06:16:22.123Z,99.90
2022-09-29T06:19:31.301Z,99.90
2022-09-29T06:22:25.894Z,99.90
2022-09-29T06:24:57.449Z,99.90
2022-09-29T06:27:37.888Z,99.90
2022-09-29T06:30:12.720Z,99.90
2022-09-29T06:32:43.185Z,99.90
2022-09-29T06:35:31.404Z,99.90
2022-09-29T06:38:13.020Z,99.90
2022-09-29T06:40:40.476Z,99.90
2022-09-29T06:46:15.570Z,99.90
2022-09-29T06:48:42.714Z,99.90
2022-09-29T06:51:10.539Z,99.90
2022-09-29T06:53:38.850Z,99.90
2022-09-29T06:56:20.889Z,99.90
2022-09-29T06:58:47.949Z,99.90
2022-09-29T07:01:17.902Z,99.90
2022-09-29T07:03:46.669Z,99.90
2022-09-29T07:06:19.707Z,99.90
2022-09-29T07:08:46.897Z,99.90
2022-09-29T07:11:13.829Z,99.90
2022-09-29T07:13:40.692Z,99.90
2022-09-29T07:16:09.006Z,99.90
2022-09-29T07:18:46.846Z,99.90
2022-09-29T07:21:27.961Z,99.90
2022-09-29T07:23:58.718Z,99.90
2022-09-29T07:26:32.559Z,99.90
2022-09-29T07:29:15.755Z,99.90
2022-09-29T07:32:25.634Z,99.90
2022-09-29T07:34:55.134Z,99.90
2022-09-29T07:37:22.026Z,99.90
2022-09-29T07:39:48.841Z,99.90
2022-09-29T07:42:18.221Z,99.90
2022-09-29T07:44:55.042Z,1.00
2022-09-29T07:47:23.155Z,99.90
2022-09-29T07:49:50.539Z,1.00
2022-09-29T07:52:19.245Z,1.00
2022-09-29T07:55:09.349Z,1.00
2022-09-29T07:57:36.362Z,1.00
2022-09-29T08:00:06.373Z,1.00
2022-09-29T08:02:59.605Z,1.00
2022-09-29T08:11:28.729Z,99.90
2022-09-29T08:13:59.941Z,1.00
2022-09-29T08:16:41.457Z,1.00
2022-09-29T08:19:23.904Z,1.00
2022-09-29T08:22:05.125Z,99.90
2022-09-29T08:24:48.148Z,99.90
2022-09-29T08:27:19.123Z,99.90
2022-09-29T08:32:52.986Z,99.90
2022-09-29T08:39:00.166Z,99.90
2022-09-29T08:41:44.037Z,99.90
2022-09-29T08:44:38.252Z,99.90
2022-09-29T08:47:44.557Z,99.90
2022-09-29T08:50:28.904Z,99.90
2022-09-29T08:53:01.300Z,99.90
2022-09-29T09:35:18.253Z,99.90
2022-09-29T09:38:01.067Z,99.90
2022-09-29T09:41:00.143Z,99.90
2022-09-29T09:46:46.335Z,99.90
2022-09-29T09:55:29.346Z,99.90
2022-09-29T10:01:36.895Z,99.90
2022-09-29T10:04:33.842Z,99.90
2022-09-29T10:10:18.933Z,99.90
2022-09-29T10:20:38.463Z,56.40
2022-09-29T10:23:32.622Z,1.00
2022-09-29T10:30:09.852Z,1.00
2022-09-29T10:33:34.172Z,1.00
2022-09-29T10:36:10.418Z,1.00
2022-09-29T10:45:16.694Z,1.00
2022-09-29T10:48:12.074Z,1.00
2022-09-29T10:51:02.632Z,1.00
2022-09-29T10:53:54.245Z,1.00
2022-09-29T11:28:23.542Z,1.00
2022-09-29T11:31:21.566Z,1.00
2022-09-29T11:37:59.247Z,1.00
2022-09-29T11:46:58.107Z,1.00
2022-09-29T11:50:21.335Z,1.00
2022-09-29T12:00:17.915Z,1.00
2022-09-29T12:06:24.817Z,1.00
2022-09-29T12:09:06.607Z,1.00
2022-09-29T12:12:23.690Z,1.00
2022-09-29T12:17:59.164Z,1.00
2022-09-29T12:29:56.788Z,1.00
2022-09-29T12:32:49.914Z,1.00
2022-09-29T12:35:23.776Z,1.00
2022-09-29T12:38:07.457Z,1.00
2022-09-29T12:47:24.429Z,1.00
2022-09-29T12:50:25.314Z,1.00
2022-09-29T12:53:09.418Z,1.00
2022-09-29T12:56:19.606Z,1.00
2022-09-29T13:02:06.280Z,1.00
2022-09-29T13:05:08.095Z,1.00
2022-09-29T13:10:47.989Z,1.00
2022-09-29T13:13:17.942Z,1.00
2022-09-29T13:16:04.716Z,1.00
2022-09-29T13:25:05.080Z,1.00
2022-09-29T13:27:54.095Z,1.00
2022-09-29T13:30:38.173Z,1.00
2022-09-29T13:33:28.164Z,1.00
2022-09-29T13:46:38.622Z,1.00
2022-09-29T13:56:46.788Z,1.00
2022-09-29T14:00:08.800Z,1.00
2022-09-29T14:03:06.958Z,1.00
2022-09-29T14:05:49.179Z,1.00
2022-09-29T14:08:43.189Z,1.00
2022-09-29T14:11:17.786Z,1.00
2022-09-29T14:17:06.028Z,1.00
2022-09-29T14:20:09.539Z,1.00
2022-09-29T14:23:28.553Z,1.00
2022-09-29T14:35:44.655Z,1.00
2022-09-29T14:38:36.943Z,1.00
2022-09-29T15:14:43.094Z,1.00
2022-09-29T15:17:20.728Z,1.00
2022-09-29T15:23:07.174Z,1.00
2022-09-29T15:25:40.100Z,1.00
2022-09-29T15:28:22.846Z,1.00
2022-09-29T15:31:07.936Z,1.00
2022-09-29T15:33:45.598Z,1.00
2022-09-29T15:36:20.196Z,1.00
2022-09-29T15:38:51.101Z,1.00
2022-09-29T15:41:29.027Z,1.00
2022-09-29T15:43:58.910Z,1.00
2022-09-29T15:49:46.219Z,1.00
2022-09-29T15:58:08.684Z,1.00
2022-09-29T16:01:04.357Z,1.00
2022-09-29T16:04:17.645Z,1.00
2022-09-29T16:06:55.532Z,1.00
2022-09-29T16:09:36.529Z,1.00
2022-09-29T16:15:17.806Z,1.00
2022-09-29T16:17:48.562Z,1.00
2022-09-29T16:24:36.254Z,1.00
2022-09-29T16:34:04.360Z,1.00
2022-09-29T16:37:04.964Z,1.00
2022-09-29T16:39:50.349Z,1.00
2022-09-29T16:42:29.372Z,1.00
2022-09-29T16:45:12.247Z,1.00
2022-09-29T16:47:47.868Z,1.00
2022-09-29T16:50:16.591Z,1.00
2022-09-29T16:52:50.816Z,1.00
2022-09-29T16:55:38.176Z,1.00
2022-09-29T16:58:13.865Z,1.00
2022-09-29T17:00:45.241Z,1.00
2022-09-29T17:06:06.809Z,1.00
2022-09-29T17:08:35.394Z,1.00
2022-09-29T17:11:07.310Z,1.00
2022-09-29T17:13:35.713Z,1.00
2022-09-29T17:22:13.322Z,1.00
2022-09-29T17:24:44.207Z,1.00
2022-09-29T17:30:20.496Z,1.00
2022-09-29T17:36:14.565Z,20.80
2022-09-29T17:38:48.353Z,24.00
2022-09-29T17:41:45.834Z,23.90
2022-09-29T17:44:28.161Z,40.30
2022-09-29T17:47:17.439Z,77.10
2022-09-29T17:50:01.788Z,71.00
2022-09-29T17:52:38.834Z,55.60
2022-09-29T17:55:18.168Z,69.20
2022-09-29T18:01:26.897Z,88.30
2022-09-29T18:06:54.163Z,91.90
2022-09-29T18:09:32.047Z,99.90
2022-09-29T18:27:11.003Z,99.90
2022-09-29T18:33:20.151Z,99.90
2022-09-29T18:41:20.660Z,99.90
2022-09-29T18:43:50.072Z,99.90
2022-09-29T18:49:29.530Z,99.90
2022-09-29T18:56:26.867Z,99.90
2022-09-29T18:58:53.786Z,99.90
2022-09-29T19:01:35.684Z,99.90
2022-09-29T19:04:06.071Z,99.90
2022-09-29T19:06:35.264Z,99.90
2022-09-29T19:09:02.318Z,99.90
2022-09-29T19:11:34.144Z,99.90
2022-09-29T19:14:03.730Z,99.90
2022-09-29T19:16:33.426Z,99.90
2022-09-29T19:22:22.818Z,99.90
2022-09-29T19:28:06.664Z,99.90
2022-09-29T19:30:47.478Z,99.90
2022-09-29T19:33:32.569Z,99.90
2022-09-29T19:36:24.440Z,99.90
2022-09-29T19:42:10.676Z,99.90
2022-09-29T19:44:39.641Z,99.90
2022-09-29T19:53:47.264Z,99.90
2022-09-29T19:59:42.176Z,99.90
2022-09-29T20:03:09.143Z,99.90
2022-09-29T20:06:04.806Z,99.90
2022-09-29T20:18:09.985Z,99.90
2022-09-29T20:20:38.972Z,99.90
2022-09-29T20:23:10.280Z,99.90
2022-09-29T20:25:37.525Z,99.90
2022-09-29T20:28:06.549Z,99.90
2022-09-29T20:30:35.576Z,99.90
2022-09-29T20:33:07.647Z,99.90
2022-09-29T20:35:40.806Z,99.90
2022-09-29T20:38:08.524Z,99.90
2022-09-29T20:40:42.815Z,99.90
2022-09-29T20:43:15.529Z,99.90
2022-09-29T20:45:43.854Z,99.90
2022-09-29T20:48:19.267Z,99.90
2022-09-29T20:50:50.902Z,99.90
2022-09-29T20:53:20.783Z,99.90
2022-09-29T20:55:49.552Z,99.90
2022-09-29T21:04:32.842Z,99.90
2022-09-29T21:07:08.251Z,99.90
2022-09-29T21:09:43.434Z,99.90
2022-09-29T21:12:15.504Z,99.90
2022-09-29T21:14:48.465Z,99.90
2022-09-29T21:23:13.822Z,99.90
2022-09-29T21:25:46.319Z,99.90
2022-09-29T21:28:21.027Z,99.90
2022-09-29T21:31:25.593Z,99.90
2022-09-29T21:34:03.894Z,99.90
2022-09-29T21:36:39.320Z,99.90
2022-09-29T21:42:52.214Z,99.90
2022-09-29T21:45:29.546Z,99.90
2022-09-29T21:48:09.390Z,99.90
2022-09-29T21:50:37.824Z,99.90
2022-09-29T21:53:04.946Z,99.90
2022-09-29T21:55:36.113Z,99.90
2022-09-29T21:58:26.110Z,99.90
2022-09-29T22:00:54.056Z,99.90
2022-09-29T22:03:21.727Z,99.90
2022-09-29T22:05:50.945Z,99.90
2022-09-29T22:08:28.481Z,99.90
2022-09-29T22:11:06.472Z,99.90
2022-09-29T22:13:35.361Z,99.90
2022-09-29T22:16:08.152Z,99.90
2022-09-29T22:18:42.839Z,99.90
2022-09-29T22:24:20.030Z,99.90
2022-09-29T22:26:46.958Z,99.90
2022-09-29T22:29:16.850Z,99.90
2022-09-29T22:31:43.799Z,99.90
2022-09-29T22:34:17.592Z,99.90
2022-09-29T22:36:44.726Z,99.90
2022-09-29T22:39:34.538Z,99.90
2022-09-29T22:42:17.220Z,99.90
2022-09-29T22:44:45.079Z,99.90
2022-09-29T22:47:16.139Z,99.90
2022-09-29T22:49:43.014Z,99.90
2022-09-29T22:54:57.312Z,99.90
2022-09-29T22:57:27.741Z,99.90
2022-09-29T23:02:40.347Z,99.90
2022-09-29T23:05:13.356Z,99.90
2022-09-29T23:07:41.829Z,99.90
2022-09-29T23:10:19.707Z,99.90
2022-09-29T23:12:54.900Z,99.90
2022-09-29T23:15:24.479Z,99.90
2022-09-29T23:17:52.367Z,99.90
2022-09-29T23:20:23.145Z,99.90
2022-09-29T23:23:33.001Z,99.90
2022-09-29T23:26:01.871Z,99.90
2022-09-29T23:28:59.538Z,99.90
2022-09-29T23:32:01.343Z,99.90
2022-09-29T23:34:55.961Z,99.90
2022-09-29T23:38:03.415Z,99.90
2022-09-29T23:40:54.185Z,99.90
2022-09-29T23:43:51.763Z,99.90
2022-09-29T23:47:05.389Z,99.90
2022-09-29T23:52:54.038Z,99.90
2022-09-29T23:55:27.084Z,99.90
